SondeTracker

Meteorological Radiosondes Database

Operations

Sounding was ended - last measurement: 2022-12-06 01:03:26z

MAP
About Radiosonde

Number: D22031665 ([BC]22031665)

Launch Site: Charleston [SC] (US)

Type: DFM

AUX: NO

Frequency: MHz

Max Speed: 181 km/h at 13351 m

Average Speed: 113.95 km/h

Max Altitude: 20002 m

Average Ascent Speed: 4.75 m/s

Average Descent Speed: 4.24 m/s

Status: LOST

Status Changes
Launch Site Type AUX Frequency Status Finder Landing Point Description Changes made by
MHz LOST 0, 0 AUTO STATUS: Probably lost in the water [BOT]AUTO-STATUS - 2022-12-06 02:10:44z
APRS Statistics

Received Frames: 349

First Frame [UTC]: 2022-12-05 23:17:33z

Last Frame [UTC]: 2022-12-06 01:03:26z

Receivers: W4DEX-14

Flight Time: 01:45:53 h

Distance From First Measurement: 193.02 km

Nearest City: [0.00 km]

Nearest Hunter: [0.00 km]

Ground Altitude: -123 m

Distance from QTH: 0.00 km

APRS Data
Receiver Number Date/Time [UTC] φ λ Course [°] Speed [km/h] Altitude [m] Description
W4DEX-14D220316652022-12-06 01:03:2632.1896-78.124119947948Clb=-3.8m/s Type=DFM17 ser=[BC]22031665 Details on http://radiosondy.info
W4DEX-14D220316652022-12-06 01:03:0532.1914-78.1279118948010Clb=-4.0m/s Type=DFM17 ser=[BC]22031665 Details on http://radiosondy.info
W4DEX-14D220316652022-12-06 01:02:4732.193-78.1317119968070Clb=-3.7m/s Type=DFM17 ser=[BC]22031665 Details on http://radiosondy.info
W4DEX-14D220316652022-12-06 01:02:2732.1946-78.1355118988131Clb=-4.2m/s Type=DFM17 ser=[BC]22031665 Details on http://radiosondy.info
W4DEX-14D220316652022-12-06 01:02:0732.1963-78.13941161008198Clb=-4.0m/s Type=DFM17 ser=[BC]22031665 Details on http://radiosondy.info
W4DEX-14D220316652022-12-06 01:01:4532.198-78.14351171048259Clb=-4.5m/s Type=DFM17 ser=[BC]22031665 Details on http://radiosondy.info
W4DEX-14D220316652022-12-06 00:59:1932.2106-78.17121181078700Clb=-4.1m/s Type=DFM17 ser=[BC]22031665 Details on http://radiosondy.info
W4DEX-14D220316652022-12-06 00:58:5932.2126-78.17531171078737Clb=-4.2m/s Type=DFM17 ser=[BC]22031665 Details on http://radiosondy.info
W4DEX-14D220316652022-12-06 00:58:3832.2144-78.17951151078800Clb=-4.1m/s Type=DFM17 ser=[BC]22031665 Details on http://radiosondy.info
W4DEX-14D220316652022-12-06 00:58:1832.2162-78.18381151078859Clb=-4.2m/s Type=DFM17 ser=[BC]22031665 Details on http://radiosondy.info
W4DEX-14D220316652022-12-06 00:57:5632.218-78.18811161098922Clb=-4.3m/s Type=DFM17 ser=[BC]22031665 Details on http://radiosondy.info
W4DEX-14D220316652022-12-06 00:57:3332.2197-78.19241141118986Clb=-4.2m/s Type=DFM17 ser=[BC]22031665 Details on http://radiosondy.info
W4DEX-14D220316652022-12-06 00:57:1032.2216-78.19681161099054Clb=-4.3m/s Type=DFM17 ser=[BC]22031665 Details on http://radiosondy.info
W4DEX-14D220316652022-12-06 00:56:4932.2234-78.20111201119121Clb=-4.2m/s Type=DFM17 ser=[BC]22031665 Details on http://radiosondy.info
W4DEX-14D220316652022-12-06 00:56:2632.2252-78.20551171099192Clb=-4.8m/s Type=DFM17 ser=[BC]22031665 Details on http://radiosondy.info
W4DEX-14D220316652022-12-06 00:56:0732.227-78.20981171099262Clb=-4.7m/s Type=DFM17 ser=[BC]22031665 Details on http://radiosondy.info
W4DEX-14D220316652022-12-06 00:55:4232.2288-78.21421141119333Clb=-4.7m/s Type=DFM17 ser=[BC]22031665 Details on http://radiosondy.info
W4DEX-14D220316652022-12-06 00:55:2132.2306-78.21861121159405Clb=-4.5m/s Type=DFM17 ser=[BC]22031665 Details on http://radiosondy.info
W4DEX-14D220316652022-12-06 00:55:0032.2325-78.22321221159476Clb=-4.8m/s Type=DFM17 ser=[BC]22031665 Details on http://radiosondy.info
W4DEX-14D220316652022-12-06 00:54:3832.2345-78.22771141199548Clb=-4.8m/s Type=DFM17 ser=[BC]22031665 Details on http://radiosondy.info
W4DEX-14D220316652022-12-06 00:54:1532.2366-78.23221191209621Clb=-5.1m/s Type=DFM17 ser=[BC]22031665 Details on http://radiosondy.info
W4DEX-14D220316652022-12-06 00:53:5032.2387-78.23691211249696Clb=-5.0m/s Type=DFM17 ser=[BC]22031665 Details on http://radiosondy.info
W4DEX-14D220316652022-12-06 00:53:2632.2409-78.24171201269773Clb=-4.9m/s Type=DFM17 ser=[BC]22031665 Details on http://radiosondy.info
W4DEX-14D220316652022-12-06 00:53:0432.2431-78.24661191289849Clb=-5.2m/s Type=DFM17 ser=[BC]22031665 Details on http://radiosondy.info
W4DEX-14D220316652022-12-06 00:52:3832.2453-78.25171171319925Clb=-5.0m/s Type=DFM17 ser=[BC]22031665 Details on http://radiosondy.info
W4DEX-14D220316652022-12-06 00:52:1232.2475-78.256911713510000Clb=-4.8m/s Type=DFM17 ser=[BC]22031665 Details on http://radiosondy.info
W4DEX-14D220316652022-12-06 00:51:5432.2497-78.262211713910077Clb=-5.1m/s Type=DFM17 ser=[BC]22031665 Details on http://radiosondy.info
W4DEX-14D220316652022-12-06 00:51:4032.252-78.267712014410153Clb=-5.2m/s Type=DFM17 ser=[BC]22031665 Details on http://radiosondy.info
W4DEX-14D220316652022-12-06 00:51:2432.2544-78.273511615210231Clb=-4.9m/s Type=DFM17 ser=[BC]22031665 Details on http://radiosondy.info
W4DEX-14D220316652022-12-06 00:51:0932.2568-78.279611615710308Clb=-5.2m/s Type=DFM17 ser=[BC]22031665 Details on http://radiosondy.info
W4DEX-14D220316652022-12-06 00:50:5432.2593-78.285911716110385Clb=-5.1m/s Type=DFM17 ser=[BC]22031665 Details on http://radiosondy.info
W4DEX-14D220316652022-12-06 00:50:3932.2619-78.292311916510464Clb=-5.0m/s Type=DFM17 ser=[BC]22031665 Details on http://radiosondy.info
W4DEX-14D220316652022-12-06 00:50:2532.2645-78.298911516710538Clb=-4.4m/s Type=DFM17 ser=[BC]22031665 Details on http://radiosondy.info
W4DEX-14D220316652022-12-06 00:50:0932.2671-78.305611416910609Clb=-5.2m/s Type=DFM17 ser=[BC]22031665 Details on http://radiosondy.info
W4DEX-14D220316652022-12-06 00:49:4432.2713-78.31711316910780Clb=-4.9m/s Type=DFM17 ser=[BC]22031665 Details on http://radiosondy.info
W4DEX-14D220316652022-12-06 00:49:3732.3012-78.426211216312075Clb=-5.3m/s Type=DFM17 ser=[BC]22031665 Details on http://radiosondy.info
W4DEX-14D220316652022-12-06 00:49:3632.3034-78.432911416512153Clb=-5.3m/s Type=DFM17 ser=[BC]22031665 Details on http://radiosondy.info
W4DEX-14D220316652022-12-06 00:49:3432.3057-78.439611416712230Clb=-5.3m/s Type=DFM17 ser=[BC]22031665 Details on http://radiosondy.info
W4DEX-14D220316652022-12-06 00:49:3332.3081-78.446411416912312Clb=-6.1m/s Type=DFM17 ser=[BC]22031665 Details on http://radiosondy.info
W4DEX-14D220316652022-12-06 00:49:3232.3129-78.460311117212483Clb=-5.5m/s Type=DFM17 ser=[BC]22031665 Details on http://radiosondy.info
W4DEX-14D220316652022-12-06 00:49:3132.3153-78.467311417412571Clb=-5.9m/s Type=DFM17 ser=[BC]22031665 Details on http://radiosondy.info
W4DEX-14D220316652022-12-06 00:49:3032.3178-78.474411317812658Clb=-5.6m/s Type=DFM17 ser=[BC]22031665 Details on http://radiosondy.info
W4DEX-14D220316652022-12-06 00:49:2932.3203-78.481711117612744Clb=-6.0m/s Type=DFM17 ser=[BC]22031665 Details on http://radiosondy.info
W4DEX-14D220316652022-12-06 00:49:2832.3227-78.488911416912829Clb=-5.7m/s Type=DFM17 ser=[BC]22031665 Details on http://radiosondy.info
W4DEX-14D220316652022-12-06 00:49:2032.325-78.495811317212904Clb=-5.7m/s Type=DFM17 ser=[BC]22031665 Details on http://radiosondy.info
W4DEX-14D220316652022-12-06 00:49:0032.3273-78.50311217212987Clb=-5.7m/s Type=DFM17 ser=[BC]22031665 Details on http://radiosondy.info
W4DEX-14D220316652022-12-06 00:48:3532.3298-78.5111517413070Clb=-4.9m/s Type=DFM17 ser=[BC]22031665 Details on http://radiosondy.info
W4DEX-14D220316652022-12-06 00:48:0932.3323-78.517111117413143Clb=-3.4m/s Type=DFM17 ser=[BC]22031665 Details on http://radiosondy.info
W4DEX-14D220316652022-12-06 00:47:4332.3348-78.524211717813209Clb=-4.0m/s Type=DFM17 ser=[BC]22031665 Details on http://radiosondy.info
W4DEX-14D220316652022-12-06 00:47:1332.3376-78.531411517213283Clb=-5.0m/s Type=DFM17 ser=[BC]22031665 Details on http://radiosondy.info
W4DEX-14D220316652022-12-06 00:46:4732.3404-78.538211818113351Clb=-4.4m/s Type=DFM17 ser=[BC]22031665 Details on http://radiosondy.info
W4DEX-14D220316652022-12-06 00:46:2032.3435-78.545311617613419Clb=-5.5m/s Type=DFM17 ser=[BC]22031665 Details on http://radiosondy.info
W4DEX-14D220316652022-12-06 00:45:5232.3464-78.552311717613492Clb=-4.4m/s Type=DFM17 ser=[BC]22031665 Details on http://radiosondy.info
W4DEX-14D220316652022-12-06 00:45:2632.3496-78.559111917213570Clb=-4.6m/s Type=DFM17 ser=[BC]22031665 Details on http://radiosondy.info
W4DEX-14D220316652022-12-06 00:45:0032.3529-78.565611916713649Clb=-5.0m/s Type=DFM17 ser=[BC]22031665 Details on http://radiosondy.info
W4DEX-14D220316652022-12-06 00:44:3632.3561-78.571812016113727Clb=-4.8m/s Type=DFM17 ser=[BC]22031665 Details on http://radiosondy.info
W4DEX-14D220316652022-12-06 00:44:0932.3595-78.577812115413807Clb=-5.5m/s Type=DFM17 ser=[BC]22031665 Details on http://radiosondy.info
W4DEX-14D220316652022-12-06 00:43:4232.3624-78.583712015213888Clb=-5.4m/s Type=DFM17 ser=[BC]22031665 Details on http://radiosondy.info
W4DEX-14D220316652022-12-06 00:43:1432.3652-78.589511814813970Clb=-5.5m/s Type=DFM17 ser=[BC]22031665 Details on http://radiosondy.info
W4DEX-14D220316652022-12-06 00:42:4732.3678-78.595211915214052Clb=-5.5m/s Type=DFM17 ser=[BC]22031665 Details on http://radiosondy.info
W4DEX-14D220316652022-12-06 00:42:1532.3705-78.601211715614134Clb=-5.5m/s Type=DFM17 ser=[BC]22031665 Details on http://radiosondy.info
W4DEX-14D220316652022-12-06 00:41:4732.3733-78.607211715414217Clb=-5.5m/s Type=DFM17 ser=[BC]22031665 Details on http://radiosondy.info
W4DEX-14D220316652022-12-06 00:41:1832.3762-78.613211915014300Clb=-5.5m/s Type=DFM17 ser=[BC]22031665 Details on http://radiosondy.info
W4DEX-14D220316652022-12-06 00:40:5132.3792-78.618712414414382Clb=-5.4m/s Type=DFM17 ser=[BC]22031665 Details on http://radiosondy.info
W4DEX-14D220316652022-12-06 00:40:2232.3822-78.62412414414464Clb=-5.7m/s Type=DFM17 ser=[BC]22031665 Details on http://radiosondy.info
W4DEX-14D220316652022-12-06 00:39:5532.3852-78.629312514314545Clb=-5.6m/s Type=DFM17 ser=[BC]22031665 Details on http://radiosondy.info
W4DEX-14D220316652022-12-06 00:39:2732.3881-78.634612714614626Clb=-5.5m/s Type=DFM17 ser=[BC]22031665 Details on http://radiosondy.info
W4DEX-14D220316652022-12-06 00:39:0232.3912-78.6412415014705Clb=-5.1m/s Type=DFM17 ser=[BC]22031665 Details on http://radiosondy.info
W4DEX-14D220316652022-12-06 00:38:3432.3944-78.645412815214784Clb=-5.5m/s Type=DFM17 ser=[BC]22031665 Details on http://radiosondy.info
W4DEX-14D220316652022-12-06 00:38:0932.3979-78.650813115214861Clb=-5.6m/s Type=DFM17 ser=[BC]22031665 Details on http://radiosondy.info
W4DEX-14D220316652022-12-06 00:37:3732.4015-78.65613214614936Clb=-5.1m/s Type=DFM17 ser=[BC]22031665 Details on http://radiosondy.info
W4DEX-14D220316652022-12-06 00:37:0632.4051-78.660813314315008Clb=-4.6m/s Type=DFM17 ser=[BC]22031665 Details on http://radiosondy.info
W4DEX-14D220316652022-12-06 00:36:3532.4088-78.665314013115072Clb=-3.7m/s Type=DFM17 ser=[BC]22031665 Details on http://radiosondy.info
W4DEX-14D220316652022-12-06 00:36:0732.4122-78.669514112415133Clb=-4.0m/s Type=DFM17 ser=[BC]22031665 Details on http://radiosondy.info
W4DEX-14D220316652022-12-06 00:35:5032.4156-78.673113112415193Clb=-3.8m/s Type=DFM17 ser=[BC]22031665 Details on http://radiosondy.info
W4DEX-14D220316652022-12-06 00:35:4032.419-78.676913712015254Clb=-4.4m/s Type=DFM17 ser=[BC]22031665 Details on http://radiosondy.info
W4DEX-14D220316652022-12-06 00:35:2332.422-78.680813811915314Clb=-3.4m/s Type=DFM17 ser=[BC]22031665 Details on http://radiosondy.info
W4DEX-14D220316652022-12-06 00:35:0532.4249-78.684712312215374Clb=-4.0m/s Type=DFM17 ser=[BC]22031665 Details on http://radiosondy.info
W4DEX-14D220316652022-12-06 00:34:5032.4279-78.688813211715432Clb=-3.5m/s Type=DFM17 ser=[BC]22031665 Details on http://radiosondy.info
W4DEX-14D220316652022-12-06 00:34:3832.4305-78.692812511915491Clb=-3.2m/s Type=DFM17 ser=[BC]22031665 Details on http://radiosondy.info
W4DEX-14D220316652022-12-06 00:34:2332.4333-78.696912811915548Clb=-3.8m/s Type=DFM17 ser=[BC]22031665 Details on http://radiosondy.info
W4DEX-14D220316652022-12-06 00:34:0532.4359-78.701112711715605Clb=-3.7m/s Type=DFM17 ser=[BC]22031665 Details on http://radiosondy.info
W4DEX-14D220316652022-12-06 00:33:5032.4385-78.705112710915662Clb=-3.5m/s Type=DFM17 ser=[BC]22031665 Details on http://radiosondy.info
W4DEX-14D220316652022-12-06 00:33:3532.441-78.70913110415720Clb=-3.7m/s Type=DFM17 ser=[BC]22031665 Details on http://radiosondy.info
W4DEX-14D220316652022-12-06 00:33:2132.4433-78.712713410015776Clb=-3.9m/s Type=DFM17 ser=[BC]22031665 Details on http://radiosondy.info
W4DEX-14D220316652022-12-06 00:33:0432.4861-78.842710511117618Clb=-3.5m/s Type=DFM17 ser=[BC]22031665 Details on http://radiosondy.info
W4DEX-14D220316652022-12-06 00:32:3732.4879-78.847212211917678Clb=-4.1m/s Type=DFM17 ser=[BC]22031665 Details on http://radiosondy.info
W4DEX-14D220316652022-12-06 00:32:0832.4898-78.851811210217742Clb=-4.0m/s Type=DFM17 ser=[BC]22031665 Details on http://radiosondy.info
W4DEX-14D220316652022-12-06 00:31:3932.4916-78.855811310017809Clb=-4.5m/s Type=DFM17 ser=[BC]22031665 Details on http://radiosondy.info
W4DEX-14D220316652022-12-06 00:31:1232.4933-78.85951339117878Clb=-4.3m/s Type=DFM17 ser=[BC]22031665 Details on http://radiosondy.info
W4DEX-14D220316652022-12-06 00:30:4232.4952-78.86291088717951Clb=-4.5m/s Type=DFM17 ser=[BC]22031665 Details on http://radiosondy.info
W4DEX-14D220316652022-12-06 00:30:1532.4967-78.866213410018023Clb=-4.6m/s Type=DFM17 ser=[BC]22031665 Details on http://radiosondy.info
W4DEX-14D220316652022-12-06 00:29:4632.4985-78.871069318096Clb=-4.6m/s Type=DFM17 ser=[BC]22031665 Details on http://radiosondy.info
W4DEX-14D220316652022-12-06 00:29:2032.5-78.873612110218169Clb=-3.6m/s Type=DFM17 ser=[BC]22031665 Details on http://radiosondy.info
W4DEX-14D220316652022-12-06 00:28:5132.5015-78.87771029818244Clb=-5.0m/s Type=DFM17 ser=[BC]22031665 Details on http://radiosondy.info
W4DEX-14D220316652022-12-06 00:28:2332.5031-78.881512510718318Clb=-5.0m/s Type=DFM17 ser=[BC]22031665 Details on http://radiosondy.info
W4DEX-14D220316652022-12-06 00:27:5532.505-78.885712110418394Clb=-4.2m/s Type=DFM17 ser=[BC]22031665 Details on http://radiosondy.info
W4DEX-14D220316652022-12-06 00:27:2732.5072-78.889512311118467Clb=-5.3m/s Type=DFM17 ser=[BC]22031665 Details on http://radiosondy.info
W4DEX-14D220316652022-12-06 00:26:5732.5096-78.89341269618539Clb=-4.5m/s Type=DFM17 ser=[BC]22031665 Details on http://radiosondy.info
W4DEX-14D220316652022-12-06 00:26:2932.5119-78.89661258718612Clb=-5.3m/s Type=DFM17 ser=[BC]22031665 Details on http://radiosondy.info
W4DEX-14D220316652022-12-06 00:26:0032.5139-78.89971198318683Clb=-5.1m/s Type=DFM17 ser=[BC]22031665 Details on http://radiosondy.info
W4DEX-14D220316652022-12-06 00:25:3232.5158-78.90261357818756Clb=-4.6m/s Type=DFM17 ser=[BC]22031665 Details on http://radiosondy.info
W4DEX-14D220316652022-12-06 00:25:0332.5174-78.90541267218827Clb=-6.5m/s Type=DFM17 ser=[BC]22031665 Details on http://radiosondy.info
W4DEX-14D220316652022-12-06 00:24:3432.5187-78.90821147218896Clb=-6.9m/s Type=DFM17 ser=[BC]22031665 Details on http://radiosondy.info
W4DEX-14D220316652022-12-06 00:24:0432.5199-78.9111126918966Clb=-5.3m/s Type=DFM17 ser=[BC]22031665 Details on http://radiosondy.info
W4DEX-14D220316652022-12-06 00:23:3732.5214-78.91351337219033Clb=-4.6m/s Type=DFM17 ser=[BC]22031665 Details on http://radiosondy.info
W4DEX-14D220316652022-12-06 00:23:0832.5232-78.91591416919105Clb=-5.9m/s Type=DFM17 ser=[BC]22031665 Details on http://radiosondy.info
W4DEX-14D220316652022-12-06 00:22:4032.525-78.91791406519180Clb=-5.1m/s Type=DFM17 ser=[BC]22031665 Details on http://radiosondy.info
W4DEX-14D220316652022-12-06 00:22:1132.5265-78.921415919248Clb=-4.7m/s Type=DFM17 ser=[BC]22031665 Details on http://radiosondy.info
W4DEX-14D220316652022-12-06 00:21:4432.5278-78.92221356119327Clb=-4.1m/s Type=DFM17 ser=[BC]22031665 Details on http://radiosondy.info
W4DEX-14D220316652022-12-06 00:21:1632.5289-78.92451135919404Clb=-6.4m/s Type=DFM17 ser=[BC]22031665 Details on http://radiosondy.info
W4DEX-14D220316652022-12-06 00:20:4832.5298-78.92691116119476Clb=-3.7m/s Type=DFM17 ser=[BC]22031665 Details on http://radiosondy.info
W4DEX-14D220316652022-12-06 00:20:1832.5305-78.92951026119551Clb=-4.7m/s Type=DFM17 ser=[BC]22031665 Details on http://radiosondy.info
W4DEX-14D220316652022-12-06 00:19:4832.5307-78.9322936119624Clb=-7.1m/s Type=DFM17 ser=[BC]22031665 Details on http://radiosondy.info
W4DEX-14D220316652022-12-06 00:19:2132.5311-78.93481025419693Clb=-4.7m/s Type=DFM17 ser=[BC]22031665 Details on http://radiosondy.info
W4DEX-14D220316652022-12-06 00:18:5432.5315-78.9371164819762Clb=-4.5m/s Type=DFM17 ser=[BC]22031665 Details on http://radiosondy.info
W4DEX-14D220316652022-12-06 00:18:2732.5319-78.9391195219821Clb=-3.8m/s Type=DFM17 ser=[BC]22031665 Details on http://radiosondy.info
W4DEX-14D220316652022-12-06 00:17:5932.5324-78.9412954819872Clb=-3.0m/s Type=DFM17 ser=[BC]22031665 Details on http://radiosondy.info
W4DEX-14D220316652022-12-06 00:17:3132.5328-78.94331095219917Clb=-3.1m/s Type=DFM17 ser=[BC]22031665 Details on http://radiosondy.info
W4DEX-14D220316652022-12-06 00:17:0132.5333-78.9455995419955Clb=-2.0m/s Type=DFM17 ser=[BC]22031665 Details on http://radiosondy.info
W4DEX-14D220316652022-12-06 00:16:3432.5338-78.94781065619983Clb=-1.2m/s Type=DFM17 ser=[BC]22031665 Details on http://radiosondy.info
W4DEX-14D220316652022-12-06 00:16:0632.5344-78.95021085420002Clb=-0.1m/s Type=DFM17 ser=[BC]22031665 Details on http://radiosondy.info
W4DEX-14D220316652022-12-06 00:15:5032.535-78.95241115719991Clb=0.9m/s Type=DFM17 ser=[BC]22031665 Details on http://radiosondy.info
W4DEX-14D220316652022-12-06 00:15:3832.5356-78.95481145419963Clb=2.4m/s Type=DFM17 ser=[BC]22031665 Details on http://radiosondy.info
W4DEX-14D220316652022-12-06 00:15:2432.5362-78.95711125219923Clb=2.8m/s Type=DFM17 ser=[BC]22031665 Details on http://radiosondy.info
W4DEX-14D220316652022-12-06 00:15:0632.5367-78.95931135219877Clb=2.5m/s Type=DFM17 ser=[BC]22031665 Details on http://radiosondy.info
W4DEX-14D220316652022-12-06 00:14:5032.5372-78.96151024819825Clb=4.4m/s Type=DFM17 ser=[BC]22031665 Details on http://radiosondy.info
W4DEX-14D220316652022-12-06 00:14:4332.5377-78.9635914819765Clb=4.6m/s Type=DFM17 ser=[BC]22031665 Details on http://radiosondy.info
W4DEX-14D220316652022-12-06 00:14:3932.5381-78.96551055419706Clb=4.9m/s Type=DFM17 ser=[BC]22031665 Details on http://radiosondy.info
W4DEX-14D220316652022-12-06 00:14:2932.5387-78.96781116319649Clb=3.4m/s Type=DFM17 ser=[BC]22031665 Details on http://radiosondy.info
W4DEX-14D220316652022-12-06 00:14:1332.5391-78.9706906519591Clb=2.6m/s Type=DFM17 ser=[BC]22031665 Details on http://radiosondy.info
W4DEX-14D220316652022-12-06 00:14:0032.5396-78.9733876719532Clb=2.7m/s Type=DFM17 ser=[BC]22031665 Details on http://radiosondy.info
W4DEX-14D220316652022-12-06 00:13:5632.5403-78.9761136319468Clb=4.7m/s Type=DFM17 ser=[BC]22031665 Details on http://radiosondy.info
W4DEX-14D220316652022-12-06 00:13:5132.5412-78.97861226119402Clb=5.7m/s Type=DFM17 ser=[BC]22031665 Details on http://radiosondy.info
W4DEX-14D220316652022-12-06 00:13:4532.5423-78.98091285919336Clb=2.2m/s Type=DFM17 ser=[BC]22031665 Details on http://radiosondy.info
W4DEX-14D220316652022-12-06 00:13:4432.5435-78.9831306519276Clb=5.4m/s Type=DFM17 ser=[BC]22031665 Details on http://radiosondy.info
W4DEX-14D220316652022-12-06 00:13:4032.5451-78.9851406919203Clb=8.7m/s Type=DFM17 ser=[BC]22031665 Details on http://radiosondy.info
W4DEX-14D220316652022-12-06 00:13:3932.5469-78.98721347419130Clb=6.6m/s Type=DFM17 ser=[BC]22031665 Details on http://radiosondy.info
W4DEX-14D220316652022-12-06 00:13:3732.5486-78.98971157619056Clb=6.6m/s Type=DFM17 ser=[BC]22031665 Details on http://radiosondy.info
W4DEX-14D220316652022-12-06 00:13:3632.5501-78.99241107218979Clb=4.8m/s Type=DFM17 ser=[BC]22031665 Details on http://radiosondy.info
W4DEX-14D220316652022-12-06 00:13:3532.5513-78.99531327418898Clb=4.1m/s Type=DFM17 ser=[BC]22031665 Details on http://radiosondy.info
W4DEX-14D220316652022-12-06 00:13:2932.5526-78.99811428018820Clb=4.0m/s Type=DFM17 ser=[BC]22031665 Details on http://radiosondy.info
W4DEX-14D220316652022-12-06 00:13:1232.5544-79.00091178518750Clb=6.1m/s Type=DFM17 ser=[BC]22031665 Details on http://radiosondy.info
W4DEX-14D220316652022-12-06 00:13:0132.5562-79.00391228518676Clb=7.2m/s Type=DFM17 ser=[BC]22031665 Details on http://radiosondy.info
W4DEX-14D220316652022-12-06 00:13:0032.5581-79.0071339618602Clb=6.0m/s Type=DFM17 ser=[BC]22031665 Details on http://radiosondy.info
W4DEX-14D220316652022-12-06 00:12:5932.5603-79.010413110918525Clb=5.7m/s Type=DFM17 ser=[BC]22031665 Details on http://radiosondy.info
W4DEX-14D220316652022-12-06 00:12:5832.5626-79.014412711118454Clb=4.9m/s Type=DFM17 ser=[BC]22031665 Details on http://radiosondy.info
W4DEX-14D220316652022-12-06 00:12:5732.5647-79.018611510618386Clb=3.0m/s Type=DFM17 ser=[BC]22031665 Details on http://radiosondy.info
W4DEX-14D220316652022-12-06 00:12:5632.5666-79.022611010218320Clb=5.3m/s Type=DFM17 ser=[BC]22031665 Details on http://radiosondy.info
W4DEX-14D220316652022-12-06 00:12:5532.5681-79.02671099318248Clb=5.0m/s Type=DFM17 ser=[BC]22031665 Details on http://radiosondy.info
W4DEX-14D220316652022-12-06 00:12:4232.5694-79.03051179418190Clb=4.4m/s Type=DFM17 ser=[BC]22031665 Details on http://radiosondy.info
W4DEX-14D220316652022-12-06 00:12:1732.571-79.03421189818117Clb=5.3m/s Type=DFM17 ser=[BC]22031665 Details on http://radiosondy.info
W4DEX-14D220316652022-12-06 00:11:4832.5725-79.03811128718052Clb=4.3m/s Type=DFM17 ser=[BC]22031665 Details on http://radiosondy.info
W4DEX-14D220316652022-12-06 00:11:2232.5739-79.04151078917978Clb=7.3m/s Type=DFM17 ser=[BC]22031665 Details on http://radiosondy.info
W4DEX-14D220316652022-12-06 00:10:5532.5753-79.0451149617893Clb=6.1m/s Type=DFM17 ser=[BC]22031665 Details on http://radiosondy.info
W4DEX-14D220316652022-12-06 00:10:2632.577-79.048612510217817Clb=4.1m/s Type=DFM17 ser=[BC]22031665 Details on http://radiosondy.info
W4DEX-14D220316652022-12-06 00:09:5632.5786-79.052810711317745Clb=5.5m/s Type=DFM17 ser=[BC]22031665 Details on http://radiosondy.info
W4DEX-14D220316652022-12-06 00:09:2932.5803-79.057311811317676Clb=7.9m/s Type=DFM17 ser=[BC]22031665 Details on http://radiosondy.info
W4DEX-14D220316652022-12-06 00:09:0132.5819-79.06210811717584Clb=6.5m/s Type=DFM17 ser=[BC]22031665 Details on http://radiosondy.info
W4DEX-14D220316652022-12-06 00:08:3432.5833-79.066810511117504Clb=7.5m/s Type=DFM17 ser=[BC]22031665 Details on http://radiosondy.info
W4DEX-14D220316652022-12-06 00:08:0532.5843-79.07159810717421Clb=5.5m/s Type=DFM17 ser=[BC]22031665 Details on http://radiosondy.info
W4DEX-14D220316652022-12-06 00:07:3932.585-79.0762969817351Clb=5.6m/s Type=DFM17 ser=[BC]22031665 Details on http://radiosondy.info
W4DEX-14D220316652022-12-06 00:07:1132.5856-79.080411310217273Clb=3.7m/s Type=DFM17 ser=[BC]22031665 Details on http://radiosondy.info
W4DEX-14D220316652022-12-06 00:06:4632.5863-79.084811010717199Clb=6.4m/s Type=DFM17 ser=[BC]22031665 Details on http://radiosondy.info
W4DEX-14D220316652022-12-06 00:06:2132.5872-79.089410610917125Clb=3.9m/s Type=DFM17 ser=[BC]22031665 Details on http://radiosondy.info
W4DEX-14D220316652022-12-06 00:05:5232.5878-79.09419610417051Clb=6.6m/s Type=DFM17 ser=[BC]22031665 Details on http://radiosondy.info
W4DEX-14D220316652022-12-06 00:05:2432.5885-79.098610610016976Clb=8.0m/s Type=DFM17 ser=[BC]22031665 Details on http://radiosondy.info
W4DEX-14D220316652022-12-06 00:04:5732.5893-79.10291069416897Clb=6.2m/s Type=DFM17 ser=[BC]22031665 Details on http://radiosondy.info
W4DEX-14D220316652022-12-06 00:04:3232.59-79.10710710216815Clb=5.2m/s Type=DFM17 ser=[BC]22031665 Details on http://radiosondy.info
W4DEX-14D220316652022-12-06 00:04:0532.5908-79.111410010216744Clb=5.6m/s Type=DFM17 ser=[BC]22031665 Details on http://radiosondy.info
W4DEX-14D220316652022-12-06 00:03:5032.592-79.11569810616665Clb=4.7m/s Type=DFM17 ser=[BC]22031665 Details on http://radiosondy.info
W4DEX-14D220316652022-12-06 00:03:3532.5935-79.119810410616595Clb=5.5m/s Type=DFM17 ser=[BC]22031665 Details on http://radiosondy.info
W4DEX-14D220316652022-12-06 00:03:2332.5952-79.124211111516522Clb=5.0m/s Type=DFM17 ser=[BC]22031665 Details on http://radiosondy.info
W4DEX-14D220316652022-12-06 00:03:0532.5967-79.128910110916431Clb=5.2m/s Type=DFM17 ser=[BC]22031665 Details on http://radiosondy.info
W4DEX-14D220316652022-12-06 00:02:5032.5982-79.13321319616335Clb=4.4m/s Type=DFM17 ser=[BC]22031665 Details on http://radiosondy.info
W4DEX-14D220316652022-12-06 00:02:3532.5998-79.13711510016240Clb=9.0m/s Type=DFM17 ser=[BC]22031665 Details on http://radiosondy.info
W4DEX-14D220316652022-12-06 00:02:2032.6013-79.1411199316153Clb=5.3m/s Type=DFM17 ser=[BC]22031665 Details on http://radiosondy.info
W4DEX-14D220316652022-12-06 00:02:0532.6031-79.14461269316069Clb=5.3m/s Type=DFM17 ser=[BC]22031665 Details on http://radiosondy.info
W4DEX-14D220316652022-12-06 00:01:5032.6051-79.147812010215986Clb=4.5m/s Type=DFM17 ser=[BC]22031665 Details on http://radiosondy.info
W4DEX-14D220316652022-12-06 00:01:3532.6076-79.151312410615907Clb=7.6m/s Type=DFM17 ser=[BC]22031665 Details on http://radiosondy.info
W4DEX-14D220316652022-12-06 00:01:2232.6102-79.154912010715822Clb=6.8m/s Type=DFM17 ser=[BC]22031665 Details on http://radiosondy.info
W4DEX-14D220316652022-12-06 00:01:0632.6126-79.158613011115740Clb=7.2m/s Type=DFM17 ser=[BC]22031665 Details on http://radiosondy.info
W4DEX-14D220316652022-12-06 00:00:5232.6228-79.175912612215430Clb=4.2m/s Type=DFM17 ser=[BC]22031665 Details on http://radiosondy.info
W4DEX-14D220316652022-12-06 00:00:5032.6257-79.1813113115351Clb=5.6m/s Type=DFM17 ser=[BC]22031665 Details on http://radiosondy.info
W4DEX-14D220316652022-12-06 00:00:4632.6291-79.184213213515276Clb=3.5m/s Type=DFM17 ser=[BC]22031665 Details on http://radiosondy.info
W4DEX-14D220316652022-12-06 00:00:4332.6326-79.188413514115200Clb=6.3m/s Type=DFM17 ser=[BC]22031665 Details on http://radiosondy.info
W4DEX-14D220316652022-12-06 00:00:3732.6362-79.19314415015137Clb=4.4m/s Type=DFM17 ser=[BC]22031665 Details on http://radiosondy.info
W4DEX-14D220316652022-12-06 00:00:3532.64-79.197813415415059Clb=8.2m/s Type=DFM17 ser=[BC]22031665 Details on http://radiosondy.info
W4DEX-14D220316652022-12-06 00:00:3332.6435-79.203212515614974Clb=4.7m/s Type=DFM17 ser=[BC]22031665 Details on http://radiosondy.info
W4DEX-14D220316652022-12-06 00:00:3232.6469-79.208813015214906Clb=7.1m/s Type=DFM17 ser=[BC]22031665 Details on http://radiosondy.info
W4DEX-14D220316652022-12-06 00:00:3032.6502-79.214312715014834Clb=2.8m/s Type=DFM17 ser=[BC]22031665 Details on http://radiosondy.info
W4DEX-14D220316652022-12-06 00:00:1932.6534-79.219712714414769Clb=5.6m/s Type=DFM17 ser=[BC]22031665 Details on http://radiosondy.info
W4DEX-14D220316652022-12-05 23:59:5032.6564-79.22512414114698Clb=6.3m/s Type=DFM17 ser=[BC]22031665 Details on http://radiosondy.info
W4DEX-14D220316652022-12-05 23:59:2332.6592-79.230311914314615Clb=5.1m/s Type=DFM17 ser=[BC]22031665 Details on http://radiosondy.info
W4DEX-14D220316652022-12-05 23:58:5732.6622-79.235612114614537Clb=4.6m/s Type=DFM17 ser=[BC]22031665 Details on http://radiosondy.info
W4DEX-14D220316652022-12-05 23:58:3132.6652-79.240912814614467Clb=2.8m/s Type=DFM17 ser=[BC]22031665 Details on http://radiosondy.info
W4DEX-14D220316652022-12-05 23:58:0632.6683-79.246312715714379Clb=3.0m/s Type=DFM17 ser=[BC]22031665 Details on http://radiosondy.info
W4DEX-14D220316652022-12-05 23:57:3832.6713-79.252211815714312Clb=4.1m/s Type=DFM17 ser=[BC]22031665 Details on http://radiosondy.info
W4DEX-14D220316652022-12-05 23:57:1332.6741-79.258412015714235Clb=3.8m/s Type=DFM17 ser=[BC]22031665 Details on http://radiosondy.info
W4DEX-14D220316652022-12-05 23:56:4332.6768-79.264611315914163Clb=4.4m/s Type=DFM17 ser=[BC]22031665 Details on http://radiosondy.info
W4DEX-14D220316652022-12-05 23:56:1732.6793-79.27112015414090Clb=6.5m/s Type=DFM17 ser=[BC]22031665 Details on http://radiosondy.info
W4DEX-14D220316652022-12-05 23:56:0232.682-79.27712015214012Clb=4.8m/s Type=DFM17 ser=[BC]22031665 Details on http://radiosondy.info
W4DEX-14D220316652022-12-05 23:56:0132.6846-79.28311716113930Clb=5.2m/s Type=DFM17 ser=[BC]22031665 Details on http://radiosondy.info
W4DEX-14D220316652022-12-05 23:56:0032.6876-79.289111516113856Clb=5.5m/s Type=DFM17 ser=[BC]22031665 Details on http://radiosondy.info
W4DEX-14D220316652022-12-05 23:55:5932.6906-79.295312017213781Clb=5.9m/s Type=DFM17 ser=[BC]22031665 Details on http://radiosondy.info
W4DEX-14D220316652022-12-05 23:55:4732.6937-79.30211717413698Clb=4.9m/s Type=DFM17 ser=[BC]22031665 Details on http://radiosondy.info
W4DEX-14D220316652022-12-05 23:55:2332.6967-79.308911117813627Clb=4.6m/s Type=DFM17 ser=[BC]22031665 Details on http://radiosondy.info
W4DEX-14D220316652022-12-05 23:54:5932.6994-79.316111217413554Clb=4.4m/s Type=DFM17 ser=[BC]22031665 Details on http://radiosondy.info
W4DEX-14D220316652022-12-05 23:54:3732.7021-79.323111617813482Clb=4.5m/s Type=DFM17 ser=[BC]22031665 Details on http://radiosondy.info
W4DEX-14D220316652022-12-05 23:54:1232.7046-79.330311217013411Clb=4.6m/s Type=DFM17 ser=[BC]22031665 Details on http://radiosondy.info
W4DEX-14D220316652022-12-05 23:53:4832.7069-79.337411016913331Clb=5.7m/s Type=DFM17 ser=[BC]22031665 Details on http://radiosondy.info
W4DEX-14D220316652022-12-05 23:53:2332.7091-79.344510917213254Clb=4.7m/s Type=DFM17 ser=[BC]22031665 Details on http://radiosondy.info
W4DEX-14D220316652022-12-05 23:52:5932.7113-79.351610916913191Clb=4.3m/s Type=DFM17 ser=[BC]22031665 Details on http://radiosondy.info
W4DEX-14D220316652022-12-05 23:52:3432.7135-79.358610517013130Clb=3.5m/s Type=DFM17 ser=[BC]22031665 Details on http://radiosondy.info
W4DEX-14D220316652022-12-05 23:52:0632.7155-79.365810917213070Clb=4.7m/s Type=DFM17 ser=[BC]22031665 Details on http://radiosondy.info
W4DEX-14D220316652022-12-05 23:51:5032.7174-79.373110817213003Clb=3.4m/s Type=DFM17 ser=[BC]22031665 Details on http://radiosondy.info
W4DEX-14D220316652022-12-05 23:51:3532.7193-79.380310717212937Clb=4.1m/s Type=DFM17 ser=[BC]22031665 Details on http://radiosondy.info
W4DEX-14D220316652022-12-05 23:51:2032.7211-79.387710617812876Clb=3.9m/s Type=DFM17 ser=[BC]22031665 Details on http://radiosondy.info
W4DEX-14D220316652022-12-05 23:51:1632.7232-79.395110617212803Clb=6.1m/s Type=DFM17 ser=[BC]22031665 Details on http://radiosondy.info
W4DEX-14D220316652022-12-05 23:51:1532.7273-79.409510717012643Clb=4.8m/s Type=DFM17 ser=[BC]22031665 Details on http://radiosondy.info
W4DEX-14D220316652022-12-05 23:51:1432.7293-79.416611116912563Clb=5.0m/s Type=DFM17 ser=[BC]22031665 Details on http://radiosondy.info
W4DEX-14D220316652022-12-05 23:51:1132.7312-79.423810816512493Clb=4.1m/s Type=DFM17 ser=[BC]22031665 Details on http://radiosondy.info
W4DEX-14D220316652022-12-05 23:50:5332.7331-79.430710916912429Clb=4.4m/s Type=DFM17 ser=[BC]22031665 Details on http://radiosondy.info
W4DEX-14D220316652022-12-05 23:50:2932.7351-79.437911216712358Clb=4.8m/s Type=DFM17 ser=[BC]22031665 Details on http://radiosondy.info
W4DEX-14D220316652022-12-05 23:50:0632.737-79.444911116112293Clb=3.0m/s Type=DFM17 ser=[BC]22031665 Details on http://radiosondy.info
W4DEX-14D220316652022-12-05 23:49:4332.739-79.451610816112232Clb=6.3m/s Type=DFM17 ser=[BC]22031665 Details on http://radiosondy.info
W4DEX-14D220316652022-12-05 23:49:1932.7407-79.458510815712155Clb=5.5m/s Type=DFM17 ser=[BC]22031665 Details on http://radiosondy.info
W4DEX-14D220316652022-12-05 23:48:5332.7423-79.465210916112074Clb=6.0m/s Type=DFM17 ser=[BC]22031665 Details on http://radiosondy.info
W4DEX-14D220316652022-12-05 23:48:3032.744-79.47210615711999Clb=5.2m/s Type=DFM17 ser=[BC]22031665 Details on http://radiosondy.info
W4DEX-14D220316652022-12-05 23:48:0632.7455-79.478810415211938Clb=3.7m/s Type=DFM17 ser=[BC]22031665 Details on http://radiosondy.info
W4DEX-14D220316652022-12-05 23:47:5032.7469-79.485410115611877Clb=3.6m/s Type=DFM17 ser=[BC]22031665 Details on http://radiosondy.info
W4DEX-14D220316652022-12-05 23:47:3532.7481-79.492110515611820Clb=3.1m/s Type=DFM17 ser=[BC]22031665 Details on http://radiosondy.info
W4DEX-14D220316652022-12-05 23:47:2032.7494-79.498810515711759Clb=3.9m/s Type=DFM17 ser=[BC]22031665 Details on http://radiosondy.info
W4DEX-14D220316652022-12-05 23:47:0532.7508-79.505511215911696Clb=4.8m/s Type=DFM17 ser=[BC]22031665 Details on http://radiosondy.info
W4DEX-14D220316652022-12-05 23:46:5032.7521-79.51249915711631Clb=4.2m/s Type=DFM17 ser=[BC]22031665 Details on http://radiosondy.info
W4DEX-14D220316652022-12-05 23:46:4932.7542-79.526210115711510Clb=3.9m/s Type=DFM17 ser=[BC]22031665 Details on http://radiosondy.info
W4DEX-14D220316652022-12-05 23:46:4832.7552-79.53319815911435Clb=4.4m/s Type=DFM17 ser=[BC]22031665 Details on http://radiosondy.info
W4DEX-14D220316652022-12-05 23:46:4332.7562-79.540110216511372Clb=3.9m/s Type=DFM17 ser=[BC]22031665 Details on http://radiosondy.info
W4DEX-14D220316652022-12-05 23:46:2532.7574-79.54729716511317Clb=3.0m/s Type=DFM17 ser=[BC]22031665 Details on http://radiosondy.info
W4DEX-14D220316652022-12-05 23:46:0232.7586-79.554410316711264Clb=3.6m/s Type=DFM17 ser=[BC]22031665 Details on http://radiosondy.info
W4DEX-14D220316652022-12-05 23:45:3832.7599-79.561610416711207Clb=3.7m/s Type=DFM17 ser=[BC]22031665 Details on http://radiosondy.info
W4DEX-14D220316652022-12-05 23:45:1532.7614-79.568710516511150Clb=3.2m/s Type=DFM17 ser=[BC]22031665 Details on http://radiosondy.info
W4DEX-14D220316652022-12-05 23:44:5132.763-79.575810316711095Clb=3.7m/s Type=DFM17 ser=[BC]22031665 Details on http://radiosondy.info
W4DEX-14D220316652022-12-05 23:44:2932.7646-79.58310616911036Clb=2.4m/s Type=DFM17 ser=[BC]22031665 Details on http://radiosondy.info
W4DEX-14D220316652022-12-05 23:44:0632.7661-79.590210617010981Clb=3.5m/s Type=DFM17 ser=[BC]22031665 Details on http://radiosondy.info
W4DEX-14D220316652022-12-05 23:43:5032.7676-79.597510516910923Clb=3.8m/s Type=DFM17 ser=[BC]22031665 Details on http://radiosondy.info
W4DEX-14D220316652022-12-05 23:43:3532.7692-79.604810417210859Clb=3.5m/s Type=DFM17 ser=[BC]22031665 Details on http://radiosondy.info
W4DEX-14D220316652022-12-05 23:43:2032.7709-79.612210617010804Clb=3.4m/s Type=DFM17 ser=[BC]22031665 Details on http://radiosondy.info
W4DEX-14D220316652022-12-05 23:43:0532.7726-79.619510617210746Clb=3.6m/s Type=DFM17 ser=[BC]22031665 Details on http://radiosondy.info
W4DEX-14D220316652022-12-05 23:42:5032.7744-79.626810817210688Clb=3.7m/s Type=DFM17 ser=[BC]22031665 Details on http://radiosondy.info
W4DEX-14D220316652022-12-05 23:42:3532.7762-79.634210517210633Clb=3.6m/s Type=DFM17 ser=[BC]22031665 Details on http://radiosondy.info
W4DEX-14D220316652022-12-05 23:42:2832.7798-79.648810917010519Clb=3.7m/s Type=DFM17 ser=[BC]22031665 Details on http://radiosondy.info
W4DEX-14D220316652022-12-05 23:42:2732.7818-79.655910616910450Clb=5.3m/s Type=DFM17 ser=[BC]22031665 Details on http://radiosondy.info
W4DEX-14D220316652022-12-05 23:42:1732.7838-79.66311417010397Clb=1.8m/s Type=DFM17 ser=[BC]22031665 Details on http://radiosondy.info
W4DEX-14D220316652022-12-05 23:41:5432.786-79.670210817410349Clb=3.2m/s Type=DFM17 ser=[BC]22031665 Details on http://radiosondy.info
W4DEX-14D220316652022-12-05 23:41:3432.7881-79.677511017010299Clb=3.1m/s Type=DFM17 ser=[BC]22031665 Details on http://radiosondy.info
W4DEX-14D220316652022-12-05 23:41:1132.7904-79.684511116510239Clb=4.7m/s Type=DFM17 ser=[BC]22031665 Details on http://radiosondy.info
W4DEX-14D220316652022-12-05 23:40:4932.7926-79.691411015910170Clb=3.6m/s Type=DFM17 ser=[BC]22031665 Details on http://radiosondy.info
W4DEX-14D220316652022-12-05 23:40:2632.7948-79.697911215710108Clb=4.1m/s Type=DFM17 ser=[BC]22031665 Details on http://radiosondy.info
W4DEX-14D220316652022-12-05 23:40:0732.797-79.704311214810048Clb=3.7m/s Type=DFM17 ser=[BC]22031665 Details on http://radiosondy.info
W4DEX-14D220316652022-12-05 23:39:5032.7994-79.71031171469995Clb=3.3m/s Type=DFM17 ser=[BC]22031665 Details on http://radiosondy.info
W4DEX-14D220316652022-12-05 23:39:3532.8017-79.71621151439938Clb=3.4m/s Type=DFM17 ser=[BC]22031665 Details on http://radiosondy.info
W4DEX-14D220316652022-12-05 23:39:2032.804-79.72191121419877Clb=3.2m/s Type=DFM17 ser=[BC]22031665 Details on http://radiosondy.info
W4DEX-14D220316652022-12-05 23:39:0532.8063-79.72751191379799Clb=5.6m/s Type=DFM17 ser=[BC]22031665 Details on http://radiosondy.info
W4DEX-14D220316652022-12-05 23:38:5032.8087-79.73291211339724Clb=4.8m/s Type=DFM17 ser=[BC]22031665 Details on http://radiosondy.info
W4DEX-14D220316652022-12-05 23:38:3532.8111-79.7381231359655Clb=4.7m/s Type=DFM17 ser=[BC]22031665 Details on http://radiosondy.info
W4DEX-14D220316652022-12-05 23:38:2032.8137-79.74321171289582Clb=5.7m/s Type=DFM17 ser=[BC]22031665 Details on http://radiosondy.info
W4DEX-14D220316652022-12-05 23:38:0532.816-79.74821181229509Clb=4.2m/s Type=DFM17 ser=[BC]22031665 Details on http://radiosondy.info
W4DEX-14D220316652022-12-05 23:37:5932.8184-79.75291191229439Clb=3.8m/s Type=DFM17 ser=[BC]22031665 Details on http://radiosondy.info
W4DEX-14D220316652022-12-05 23:37:5832.8206-79.75761181199366Clb=5.3m/s Type=DFM17 ser=[BC]22031665 Details on http://radiosondy.info
W4DEX-14D220316652022-12-05 23:37:5332.8228-79.76211211159292Clb=4.2m/s Type=DFM17 ser=[BC]22031665 Details on http://radiosondy.info
W4DEX-14D220316652022-12-05 23:37:3732.825-79.76651201139225Clb=4.6m/s Type=DFM17 ser=[BC]22031665 Details on http://radiosondy.info
W4DEX-14D220316652022-12-05 23:37:1232.8271-79.77091241119145Clb=5.0m/s Type=DFM17 ser=[BC]22031665 Details on http://radiosondy.info
W4DEX-14D220316652022-12-05 23:36:4932.829-79.77521171099071Clb=4.8m/s Type=DFM17 ser=[BC]22031665 Details on http://radiosondy.info
W4DEX-14D220316652022-12-05 23:36:2832.8309-79.77961101049007Clb=5.9m/s Type=DFM17 ser=[BC]22031665 Details on http://radiosondy.info
W4DEX-14D220316652022-12-05 23:36:0632.8326-79.78371181158920Clb=4.4m/s Type=DFM17 ser=[BC]22031665 Details on http://radiosondy.info
W4DEX-14D220316652022-12-05 23:35:5032.8344-79.78831161078843Clb=7.0m/s Type=DFM17 ser=[BC]22031665 Details on http://radiosondy.info
W4DEX-14D220316652022-12-05 23:35:3532.8362-79.79251231068758Clb=5.5m/s Type=DFM17 ser=[BC]22031665 Details on http://radiosondy.info
W4DEX-14D220316652022-12-05 23:35:2032.8379-79.79681111008693Clb=4.4m/s Type=DFM17 ser=[BC]22031665 Details on http://radiosondy.info
W4DEX-14D220316652022-12-05 23:35:0532.8395-79.80081121048609Clb=6.2m/s Type=DFM17 ser=[BC]22031665 Details on http://radiosondy.info
W4DEX-14D220316652022-12-05 23:34:5132.8411-79.80481181048543Clb=3.7m/s Type=DFM17 ser=[BC]22031665 Details on http://radiosondy.info
W4DEX-14D220316652022-12-05 23:34:3532.8429-79.8091091028472Clb=7.3m/s Type=DFM17 ser=[BC]22031665 Details on http://radiosondy.info
W4DEX-14D220316652022-12-05 23:34:2032.8445-79.81311221048398Clb=4.3m/s Type=DFM17 ser=[BC]22031665 Details on http://radiosondy.info
W4DEX-14D220316652022-12-05 23:34:0532.8462-79.81711241048337Clb=2.9m/s Type=DFM17 ser=[BC]22031665 Details on http://radiosondy.info
W4DEX-14D220316652022-12-05 23:33:5032.8481-79.82121111008279Clb=4.0m/s Type=DFM17 ser=[BC]22031665 Details on http://radiosondy.info
W4DEX-14D220316652022-12-05 23:33:3732.8513-79.8289111968148Clb=3.9m/s Type=DFM17 ser=[BC]22031665 Details on http://radiosondy.info
W4DEX-14D220316652022-12-05 23:33:2632.8528-79.8327112938073Clb=6.7m/s Type=DFM17 ser=[BC]22031665 Details on http://radiosondy.info
W4DEX-14D220316652022-12-05 23:33:0732.8542-79.8364109948008Clb=3.7m/s Type=DFM17 ser=[BC]22031665 Details on http://radiosondy.info
W4DEX-14D220316652022-12-05 23:32:4632.8557-79.8402106877923Clb=5.4m/s Type=DFM17 ser=[BC]22031665 Details on http://radiosondy.info
W4DEX-14D220316652022-12-05 23:32:2532.857-79.8437121987845Clb=4.4m/s Type=DFM17 ser=[BC]22031665 Details on http://radiosondy.info
W4DEX-14D220316652022-12-05 23:32:0532.8587-79.8476105937770Clb=4.2m/s Type=DFM17 ser=[BC]22031665 Details on http://radiosondy.info
W4DEX-14D220316652022-12-05 23:31:5032.86-79.8514118947697Clb=4.0m/s Type=DFM17 ser=[BC]22031665 Details on http://radiosondy.info
W4DEX-14D220316652022-12-05 23:31:3532.8615-79.8552122917625Clb=4.0m/s Type=DFM17 ser=[BC]22031665 Details on http://radiosondy.info
W4DEX-14D220316652022-12-05 23:31:2032.8629-79.8588110897554Clb=5.6m/s Type=DFM17 ser=[BC]22031665 Details on http://radiosondy.info
W4DEX-14D220316652022-12-05 23:31:0532.8642-79.8623119707484Clb=3.9m/s Type=DFM17 ser=[BC]22031665 Details on http://radiosondy.info
W4DEX-14D220316652022-12-05 23:30:5032.8651-79.8653107817409Clb=5.4m/s Type=DFM17 ser=[BC]22031665 Details on http://radiosondy.info
W4DEX-14D220316652022-12-05 23:30:3532.8664-79.8686116727340Clb=4.6m/s Type=DFM17 ser=[BC]22031665 Details on http://radiosondy.info
W4DEX-14D220316652022-12-05 23:30:2032.8667-79.8717115837256Clb=6.5m/s Type=DFM17 ser=[BC]22031665 Details on http://radiosondy.info
W4DEX-14D220316652022-12-05 23:30:0532.8672-79.875497837179Clb=5.5m/s Type=DFM17 ser=[BC]22031665 Details on http://radiosondy.info
W4DEX-14D220316652022-12-05 23:29:5032.8678-79.878992727107Clb=6.7m/s Type=DFM17 ser=[BC]22031665 Details on http://radiosondy.info
W4DEX-14D220316652022-12-05 23:29:3532.8683-79.8821112787028Clb=3.7m/s Type=DFM17 ser=[BC]22031665 Details on http://radiosondy.info
W4DEX-14D220316652022-12-05 23:29:2032.869-79.8854112876938Clb=4.8m/s Type=DFM17 ser=[BC]22031665 Details on http://radiosondy.info
W4DEX-14D220316652022-12-05 23:29:1432.8699-79.8891106786863Clb=7.7m/s Type=DFM17 ser=[BC]22031665 Details on http://radiosondy.info
W4DEX-14D220316652022-12-05 23:29:0132.8705-79.8925103806773Clb=3.0m/s Type=DFM17 ser=[BC]22031665 Details on http://radiosondy.info
W4DEX-14D220316652022-12-05 23:28:4332.8713-79.896110876696Clb=3.2m/s Type=DFM17 ser=[BC]22031665 Details on http://radiosondy.info
W4DEX-14D220316652022-12-05 23:28:2432.8719-79.899795806621Clb=4.7m/s Type=DFM17 ser=[BC]22031665 Details on http://radiosondy.info
W4DEX-14D220316652022-12-05 23:28:0532.8723-79.9032114836549Clb=4.8m/s Type=DFM17 ser=[BC]22031665 Details on http://radiosondy.info
W4DEX-14D220316652022-12-05 23:27:5032.873-79.9068100836475Clb=4.2m/s Type=DFM17 ser=[BC]22031665 Details on http://radiosondy.info
W4DEX-14D220316652022-12-05 23:27:3532.8737-79.9103104936392Clb=3.7m/s Type=DFM17 ser=[BC]22031665 Details on http://radiosondy.info
W4DEX-14D220316652022-12-05 23:27:2032.8748-79.9142111876315Clb=4.7m/s Type=DFM17 ser=[BC]22031665 Details on http://radiosondy.info
W4DEX-14D220316652022-12-05 23:27:0532.8757-79.917997856248Clb=5.1m/s Type=DFM17 ser=[BC]22031665 Details on http://radiosondy.info
W4DEX-14D220316652022-12-05 23:26:5032.8766-79.9215113856172Clb=4.8m/s Type=DFM17 ser=[BC]22031665 Details on http://radiosondy.info
W4DEX-14D220316652022-12-05 23:26:3532.8776-79.9251120786095Clb=6.5m/s Type=DFM17 ser=[BC]22031665 Details on http://radiosondy.info
W4DEX-14D220316652022-12-05 23:26:2032.8788-79.9281105746013Clb=5.1m/s Type=DFM17 ser=[BC]22031665 Details on http://radiosondy.info
W4DEX-14D220316652022-12-05 23:26:0532.8798-79.9312106595936Clb=6.6m/s Type=DFM17 ser=[BC]22031665 Details on http://radiosondy.info
W4DEX-14D220316652022-12-05 23:25:5032.8808-79.9336128695861Clb=4.5m/s Type=DFM17 ser=[BC]22031665 Details on http://radiosondy.info
W4DEX-14D220316652022-12-05 23:25:3532.8817-79.9364123595782Clb=3.1m/s Type=DFM17 ser=[BC]22031665 Details on http://radiosondy.info
W4DEX-14D220316652022-12-05 23:25:2032.8825-79.9388121635708Clb=5.7m/s Type=DFM17 ser=[BC]22031665 Details on http://radiosondy.info
W4DEX-14D220316652022-12-05 23:25:0532.8832-79.941598655636Clb=6.6m/s Type=DFM17 ser=[BC]22031665 Details on http://radiosondy.info
W4DEX-14D220316652022-12-05 23:24:5632.8841-79.9442104635555Clb=4.1m/s Type=DFM17 ser=[BC]22031665 Details on http://radiosondy.info
W4DEX-14D220316652022-12-05 23:24:4132.8847-79.9468112635487Clb=5.5m/s Type=DFM17 ser=[BC]22031665 Details on http://radiosondy.info
W4DEX-14D220316652022-12-05 23:24:2332.8853-79.9495112545410Clb=5.3m/s Type=DFM17 ser=[BC]22031665 Details on http://radiosondy.info
W4DEX-14D220316652022-12-05 23:24:0532.8857-79.951792595338Clb=6.3m/s Type=DFM17 ser=[BC]22031665 Details on http://radiosondy.info
W4DEX-14D220316652022-12-05 23:23:5032.8865-79.9542120655264Clb=3.3m/s Type=DFM17 ser=[BC]22031665 Details on http://radiosondy.info
W4DEX-14D220316652022-12-05 23:23:3532.8872-79.956998575192Clb=4.7m/s Type=DFM17 ser=[BC]22031665 Details on http://radiosondy.info
W4DEX-14D220316652022-12-05 23:23:2032.888-79.9592100545118Clb=3.8m/s Type=DFM17 ser=[BC]22031665 Details on http://radiosondy.info
W4DEX-14D220316652022-12-05 23:23:0532.889-79.9613111575036Clb=7.6m/s Type=DFM17 ser=[BC]22031665 Details on http://radiosondy.info
W4DEX-14D220316652022-12-05 23:22:5032.8896-79.9637101524959Clb=5.8m/s Type=DFM17 ser=[BC]22031665 Details on http://radiosondy.info
W4DEX-14D220316652022-12-05 23:22:3532.8903-79.9658131504885Clb=5.1m/s Type=DFM17 ser=[BC]22031665 Details on http://radiosondy.info
W4DEX-14D220316652022-12-05 23:22:2032.8909-79.9678122484809Clb=4.7m/s Type=DFM17 ser=[BC]22031665 Details on http://radiosondy.info
W4DEX-14D220316652022-12-05 23:22:0532.8915-79.9698126484738Clb=5.0m/s Type=DFM17 ser=[BC]22031665 Details on http://radiosondy.info
W4DEX-14D220316652022-12-05 23:21:5032.8919-79.9717112334656Clb=5.0m/s Type=DFM17 ser=[BC]22031665 Details on http://radiosondy.info
W4DEX-14D220316652022-12-05 23:21:3532.8924-79.97398434577Clb=6.9m/s Type=DFM17 ser=[BC]22031665 Details on http://radiosondy.info
W4DEX-14D220316652022-12-05 23:21:2032.8928-79.974985394501Clb=3.5m/s Type=DFM17 ser=[BC]22031665 Details on http://radiosondy.info
W4DEX-14D220316652022-12-05 23:21:0532.8935-79.976392444431Clb=4.8m/s Type=DFM17 ser=[BC]22031665 Details on http://radiosondy.info
W4DEX-14D220316652022-12-05 23:20:5132.8941-79.97890434361Clb=2.9m/s Type=DFM17 ser=[BC]22031665 Details on http://radiosondy.info
W4DEX-14D220316652022-12-05 23:20:3632.8947-79.9798129504278Clb=4.3m/s Type=DFM17 ser=[BC]22031665 Details on http://radiosondy.info
W4DEX-14D220316652022-12-05 23:20:2032.8955-79.9817121464204Clb=4.9m/s Type=DFM17 ser=[BC]22031665 Details on http://radiosondy.info
W4DEX-14D220316652022-12-05 23:20:0532.8962-79.9836124434130Clb=4.4m/s Type=DFM17 ser=[BC]22031665 Details on http://radiosondy.info
W4DEX-14D220316652022-12-05 23:19:5032.8967-79.985390464055Clb=5.4m/s Type=DFM17 ser=[BC]22031665 Details on http://radiosondy.info
W4DEX-14D220316652022-12-05 23:19:3532.8972-79.987297443983Clb=4.5m/s Type=DFM17 ser=[BC]22031665 Details on http://radiosondy.info
W4DEX-14D220316652022-12-05 23:19:2032.8978-79.9889119503909Clb=5.8m/s Type=DFM17 ser=[BC]22031665 Details on http://radiosondy.info
W4DEX-14D220316652022-12-05 23:19:0532.8985-79.9909135483830Clb=5.4m/s Type=DFM17 ser=[BC]22031665 Details on http://radiosondy.info
W4DEX-14D220316652022-12-05 23:18:5032.8992-79.9929126483746Clb=6.0m/s Type=DFM17 ser=[BC]22031665 Details on http://radiosondy.info
W4DEX-14D220316652022-12-05 23:18:3432.9002-79.994895503658Clb=4.4m/s Type=DFM Details on http://radiosondy.info
W4DEX-14D220316652022-12-05 23:18:1932.9009-79.9966105443573Clb=5.0m/s Type=DFM Details on http://radiosondy.info
W4DEX-14D220316652022-12-05 23:18:0432.9018-79.9983150393493Clb=6.0m/s Type=DFM Details on http://radiosondy.info
W4DEX-14D220316652022-12-05 23:17:4932.9026-79.9996104393404Clb=5.9m/s Type=DFM Details on http://radiosondy.info
W4DEX-14D220316652022-12-05 23:17:3332.9035-80.0011109283312Clb=5.1m/s Type=DFM Details on http://radiosondy.info